Αρχική σελίδα
METAR-TAF:

METAR-TAF

Αεροδρόμια :

Νουακσότ, Μαυριτανία

γεωγραφικό πλάτος: 18-18-36N, γεωγραφικό μήκος: 015-58-11W, υψόμετρο: 3 μ

Παρών καιρός

Η αναφορά έγινε 28 λεπτά πριν, στις 11:00 UTC
Άνεμος 10 kt από Β/BA
Θερμοκρασία 21°C
Υγρασία 46%
Πίεση 1015 hPa
Ορατότητα: 8000 μ

METAR: GQNO 161100Z 03010KT 8000 NSC 21/09 Q1015 NOSIG

Χρόνος: 11:28 (11:28 UTC)

Πρόγνωση Καιρού

Η αναφορά έγινε 6 ώρες και 8 λεπτά πριν, στις 05:20 UTC
Η πρόγνωση ισχύει από τις 16 στις 06 UTC έως τις 17 στις 12 UTC
Άνεμος 10 kt από Β/BΔ
Ορατότητα: 8000 μ
Προσωρινά
από 16 στις 09 UTC έως τις 16 στις 14 UTC
Άνεμος 8 kt από BA

TAF: GQNO 160520Z 1606/1712 34010KT 8000 NSC TEMPO 1609/1614 04008KT

Μετεωρολογικές αναφορές και προγνώσεις για περισσότερα από 4000 αεροδρόμια (δελτία METAR και TAF).

Οι διαθέσιμοι σταθμοί απεικονίζονται στο χάρτη με κίτρινες και κόκκινες κουκκίδες.

Μετακινήστε το ποντίκι πάνω από τις κουκκίδες για να δείτε το όνομα του σταθμού.

Στη συνέχεια, κάντε κλικ για να δείτε τις μετεωρολογικές αναφορές και τις προγνώσεις καιρού.

Για να αλλάξετε το χάρτη: κάντε κλικ στα πράσινα κουμπιά με τον μαύρο σταυρό για να ζουμάρετε, στο πράσινο κουμπί με την παύλα για να αφαιρέσετε το ζουμ ή στα πράσινα βέλη για να αντιπαραβάλλετε χάρτες.


METAR-TAF: